Time;durP1;ratioP1;P1;durP2;ratioP2;P2;SDS_P1;SDS_P2;PMS_P1;PMS_P2;Temp;Humidity;BMP_temperature;BMP_pressure;BME280_temperature;BME280_humidity;BME280_pressure;Samples;Min_cycle;Max_cycle;Signal;HPM_P1;HPM_P2
2022/05/01 00:01:36;;;;;;;12.30;6.50;;;11.00;75.60;;;;;;5074743;28;20103;-80
2022/05/01 00:04:03;;;;;;;11.83;5.63;;;11.00;75.60;;;;;;5074842;28;20035;-81
2022/05/01 00:06:31;;;;;;;12.17;6.10;;;11.00;75.70;;;;;;5056887;28;20035;-81
2022/05/01 00:08:58;;;;;;;10.17;6.40;;;11.00;75.90;;;;;;5073716;28;20029;-80
2022/05/01 00:11:24;;;;;;;9.10;5.73;;;11.10;75.90;;;;;;5074447;28;20793;-80
2022/05/01 00:13:50;;;;;;;12.07;6.37;;;10.90;75.90;;;;;;5074669;28;20111;-80
2022/05/01 00:16:15;;;;;;;11.97;6.27;;;10.90;76.10;;;;;;5056774;28;20496;-81
2022/05/01 00:18:41;;;;;;;11.43;7.23;;;10.90;76.20;;;;;;5074378;28;20432;-80
2022/05/01 00:21:07;;;;;;;11.93;6.70;;;10.90;76.20;;;;;;5073061;28;20055;-80
2022/05/01 00:23:33;;;;;;;13.77;7.37;;;11.00;76.30;;;;;;5089754;28;20430;-80
2022/05/01 00:26:00;;;;;;;12.03;7.03;;;10.90;76.50;;;;;;5056361;28;20128;-80
2022/05/01 00:28:28;;;;;;;11.40;6.67;;;10.90;76.40;;;;;;5073252;28;20071;-81
2022/05/01 00:30:53;;;;;;;10.63;6.67;;;10.80;76.40;;;;;;5073243;28;20178;-81
2022/05/01 00:38:47;;;;;;;10.33;6.67;;;10.90;76.50;;;;;;5074402;28;20396;-80
2022/05/01 00:41:14;;;;;;;11.20;6.47;;;10.90;76.60;;;;;;5073991;28;20029;-81
2022/05/01 00:44:05;;;;;;;11.57;6.93;;;10.90;76.70;;;;;;5056250;28;20389;-81
2022/05/01 00:46:35;;;;;;;11.43;6.60;;;10.80;76.80;;;;;;5072638;28;20103;-80
2022/05/01 00:49:02;;;;;;;10.13;6.43;;;10.80;76.90;;;;;;5089641;28;20066;-81
2022/05/01 00:51:30;;;;;;;11.87;6.57;;;10.80;76.90;;;;;;5073912;28;20025;-81
2022/05/01 00:53:57;;;;;;;11.37;7.03;;;10.80;77.00;;;;;;5074116;28;20041;-81
2022/05/01 00:56:24;;;;;;;12.83;6.60;;;10.80;77.00;;;;;;5074350;28;20071;-80
2022/05/01 00:58:51;;;;;;;12.93;6.80;;;10.80;77.20;;;;;;5056207;28;20024;-81
2022/05/01 01:01:18;;;;;;;11.37;7.40;;;10.80;77.60;;;;;;5072615;28;20029;-73
2022/05/01 01:03:44;;;;;;;13.00;6.93;;;10.80;77.40;;;;;;5073992;28;20491;-73
2022/05/01 01:06:10;;;;;;;15.07;7.60;;;10.70;77.40;;;;;;5072731;28;20028;-73
2022/05/01 01:08:36;;;;;;;11.90;7.07;;;10.70;77.40;;;;;;5073660;28;20017;-74
2022/05/01 01:11:02;;;;;;;11.33;7.17;;;10.70;77.60;;;;;;5072051;28;20027;-73
2022/05/01 01:13:29;;;;;;;12.10;7.50;;;10.70;77.70;;;;;;5056181;28;20036;-73
2022/05/01 01:15:56;;;;;;;12.27;7.57;;;10.70;77.80;;;;;;5089044;28;20021;-73
2022/05/01 01:18:23;;;;;;;11.40;7.27;;;10.70;77.90;;;;;;5072293;28;20036;-73
2022/05/01 01:20:51;;;;;;;9.40;6.47;;;10.70;77.80;;;;;;5073294;28;20025;-73
2022/05/01 01:23:17;;;;;;;10.30;6.80;;;10.70;77.90;;;;;;5055864;28;20361;-73
2022/05/01 01:25:43;;;;;;;13.23;7.53;;;10.70;77.90;;;;;;5055768;28;20044;-73
2022/05/01 01:28:09;;;;;;;9.80;6.60;;;10.70;77.90;;;;;;5072489;28;20495;-74
2022/05/01 01:33:25;;;;;;;13.07;7.33;;;10.70;78.10;;;;;;5058923;28;20044;-73
2022/05/01 01:35:51;;;;;;;11.00;6.90;;;10.70;78.20;;;;;;5073214;28;20542;-74
2022/05/01 01:38:18;;;;;;;10.27;6.90;;;10.70;78.30;;;;;;5088849;28;20044;-73
2022/05/01 01:40:47;;;;;;;12.07;8.27;;;10.70;78.30;;;;;;5073399;28;20024;-73
2022/05/01 01:43:16;;;;;;;13.67;8.53;;;10.70;78.30;;;;;;5088864;28;20070;-74
2022/05/01 01:45:42;;;;;;;11.47;6.87;;;10.70;78.30;;;;;;5073407;28;20108;-74
2022/05/01 01:48:13;;;;;;;12.10;7.83;;;10.70;78.40;;;;;;5055354;28;20053;-74
2022/05/01 01:50:39;;;;;;;14.40;8.00;;;10.70;78.50;;;;;;5055796;28;20056;-74
2022/05/01 01:53:06;;;;;;;12.43;7.97;;;10.60;78.40;;;;;;5073486;28;20032;-74
2022/05/01 01:55:32;;;;;;;13.03;7.80;;;10.70;78.60;;;;;;5073127;28;20070;-73
2022/05/01 01:57:57;;;;;;;11.97;7.90;;;10.60;78.60;;;;;;5073451;28;20099;-73
2022/05/01 02:00:23;;;;;;;15.00;8.17;;;10.60;78.70;;;;;;5073303;28;20024;-73
2022/05/01 02:02:49;;;;;;;13.77;8.03;;;10.50;78.80;;;;;;5055362;28;20028;-73
2022/05/01 02:05:14;;;;;;;15.83;8.53;;;10.50;78.90;;;;;;5073143;28;20385;-73
2022/05/01 02:07:40;;;;;;;14.23;8.80;;;10.50;79.70;;;;;;5092128;28;20353;-73
2022/05/01 02:10:06;;;;;;;14.33;8.57;;;10.50;79.10;;;;;;5076825;28;20020;-73
2022/05/01 02:12:33;;;;;;;13.93;7.93;;;10.50;79.10;;;;;;5076860;28;20029;-73
2022/05/01 02:14:59;;;;;;;13.17;8.60;;;10.50;79.30;;;;;;5077040;28;20105;-73
2022/05/01 02:17:25;;;;;;;13.80;8.87;;;10.60;79.40;;;;;;5076985;28;20024;-73
2022/05/01 02:19:50;;;;;;;14.57;9.40;;;10.50;79.40;;;;;;5059224;28;20036;-73
2022/05/01 02:22:16;;;;;;;13.53;8.30;;;10.60;79.50;;;;;;5076669;28;20514;-73
2022/05/01 02:24:42;;;;;;;12.97;8.73;;;10.50;79.40;;;;;;5076744;28;20048;-73
2022/05/01 02:27:07;;;;;;;14.87;8.47;;;10.50;79.70;;;;;;5059072;28;20032;-73
2022/05/01 02:29:33;;;;;;;13.17;8.87;;;10.50;79.50;;;;;;5075350;28;20530;-74
2022/05/01 02:31:59;;;;;;;13.93;8.10;;;10.50;79.50;;;;;;5076776;28;20082;-73
2022/05/01 02:34:25;;;;;;;14.33;8.83;;;10.40;79.60;;;;;;5075097;28;20516;-74
2022/05/01 02:36:51;;;;;;;14.83;8.23;;;10.50;79.70;;;;;;5076495;28;20021;-73
2022/05/01 02:39:17;;;;;;;15.33;8.40;;;10.40;79.70;;;;;;5092023;28;20453;-73
2022/05/01 02:41:43;;;;;;;12.33;8.97;;;10.40;79.80;;;;;;5076886;28;20495;-73
2022/05/01 02:44:10;;;;;;;15.13;8.83;;;10.40;80.00;;;;;;5076258;28;20025;-73
2022/05/01 02:46:36;;;;;;;13.20;8.80;;;10.30;80.00;;;;;;5075238;28;20020;-73
2022/05/01 02:49:05;;;;;;;12.43;8.53;;;10.40;80.10;;;;;;5058843;28;20369;-73
2022/05/01 02:51:36;;;;;;;14.43;8.63;;;10.40;80.10;;;;;;5076194;28;20100;-73
2022/05/01 02:54:04;;;;;;;13.53;9.30;;;10.50;80.30;;;;;;5076607;28;20024;-73
2022/05/01 02:56:30;;;;;;;15.70;9.13;;;10.40;80.40;;;;;;5074925;28;20028;-74
2022/05/01 02:58:57;;;;;;;16.33;9.30;;;10.30;80.40;;;;;;5076175;28;20023;-74
2022/05/01 03:01:23;;;;;;;13.90;9.47;;;10.30;80.40;;;;;;5075911;28;20025;-73
2022/05/01 03:03:49;;;;;;;14.07;8.30;;;10.30;80.50;;;;;;5075978;28;20030;-73
2022/05/01 03:06:15;;;;;;;15.73;8.43;;;10.30;80.60;;;;;;5075938;28;20100;-74
2022/05/01 03:08:40;;;;;;;12.57;8.37;;;10.30;80.60;;;;;;5074638;28;20031;-74
2022/05/01 03:11:06;;;;;;;13.80;8.93;;;10.30;80.70;;;;;;5074533;28;20115;-73
2022/05/01 03:13:32;;;;;;;15.60;8.73;;;10.30;80.80;;;;;;5074602;28;20476;-73
2022/05/01 03:15:58;;;;;;;14.27;9.13;;;10.20;80.70;;;;;;5074363;28;20526;-73
2022/05/01 03:23:52;;;;;;;17.73;8.90;;;10.30;81.00;;;;;;5075907;28;20035;-81
2022/05/01 03:26:18;;;;;;;14.03;9.10;;;10.20;80.90;;;;;;5057492;28;20040;-81
2022/05/01 03:28:47;;;;;;;16.00;8.73;;;10.20;80.90;;;;;;5075551;28;20016;-80
2022/05/01 03:31:14;;;;;;;15.70;8.83;;;10.20;81.00;;;;;;5074436;28;20152;-81
2022/05/01 03:33:41;;;;;;;15.50;9.73;;;10.10;81.10;;;;;;5075380;28;20032;-81
2022/05/01 03:36:07;;;;;;;15.03;8.93;;;10.10;81.30;;;;;;5074132;28;20400;-81
2022/05/01 03:38:40;;;;;;;13.23;9.13;;;10.10;81.50;;;;;;5075485;28;20025;-81
2022/05/01 03:41:07;;;;;;;13.80;9.27;;;10.00;82.20;;;;;;5074128;28;20054;-81
2022/05/01 03:43:34;;;;;;;15.63;10.13;;;10.10;81.70;;;;;;5075212;28;20016;-80
2022/05/01 03:46:02;;;;;;;12.27;9.10;;;10.00;81.70;;;;;;5075202;28;20078;-81
2022/05/01 03:48:28;;;;;;;14.37;8.60;;;10.00;81.70;;;;;;5074694;28;20044;-80
2022/05/01 03:50:54;;;;;;;12.43;8.53;;;10.00;81.80;;;;;;5071466;28;20055;-81
2022/05/01 03:53:22;;;;;;;14.47;9.17;;;10.00;81.90;;;;;;5076553;28;20078;-81
2022/05/01 03:55:48;;;;;;;13.70;9.63;;;10.00;81.90;;;;;;5094767;28;20472;-81
2022/05/01 03:58:14;;;;;;;16.70;8.73;;;9.90;82.00;;;;;;5095260;28;20058;-81
2022/05/01 04:00:44;;;;;;;14.33;8.40;;;10.00;82.20;;;;;;5094965;28;20032;-80
2022/05/01 04:03:09;;;;;;;16.17;9.50;;;10.00;82.30;;;;;;5076869;28;20387;-81
2022/05/01 04:05:35;;;;;;;17.10;9.67;;;10.00;82.40;;;;;;5077118;28;20054;-81
2022/05/01 04:08:01;;;;;;;16.27;8.53;;;9.90;82.30;;;;;;5076914;28;20035;-80
2022/05/01 04:10:26;;;;;;;12.67;8.07;;;9.80;82.40;;;;;;5077011;28;20033;-80
2022/05/01 04:12:52;;;;;;;13.23;9.03;;;9.90;82.70;;;;;;5076918;28;20392;-81
2022/05/01 04:15:17;;;;;;;14.27;9.17;;;9.90;82.70;;;;;;5094914;28;20102;-81
2022/05/01 04:17:43;;;;;;;14.53;9.23;;;9.90;82.70;;;;;;5076714;28;20028;-80
2022/05/01 04:20:15;;;;;;;13.73;9.47;;;9.90;82.80;;;;;;5076844;28;20388;-80
2022/05/01 04:22:45;;;;;;;11.97;8.43;;;9.90;82.90;;;;;;5075680;28;20020;-80
2022/05/01 04:25:31;;;;;;;14.60;8.23;;;9.90;83.00;;;;;;5094482;28;20032;-80
2022/05/01 04:28:03;;;;;;;16.87;9.30;;;9.90;83.10;;;;;;5094528;28;20119;-81
2022/05/01 04:30:31;;;;;;;13.63;8.87;;;9.80;83.10;;;;;;5075992;28;20490;-81
2022/05/01 04:32:58;;;;;;;13.70;8.83;;;9.80;83.20;;;;;;5084680;28;20446;-80
2022/05/01 04:35:25;;;;;;;15.70;9.43;;;9.90;83.40;;;;;;5074204;28;20100;-79
2022/05/01 04:37:52;;;;;;;14.40;9.03;;;9.90;83.60;;;;;;5074334;28;20027;-79
2022/05/01 04:40:19;;;;;;;15.00;9.37;;;9.80;83.50;;;;;;5074155;28;20086;-79
2022/05/01 04:42:45;;;;;;;16.00;8.83;;;9.90;83.50;;;;;;5056079;28;20376;-79
2022/05/01 04:45:11;;;;;;;13.93;8.93;;;9.80;83.60;;;;;;5073888;28;20103;-79
2022/05/01 04:47:38;;;;;;;13.87;8.57;;;9.80;83.70;;;;;;5074015;28;20027;-79
2022/05/01 04:50:04;;;;;;;14.23;9.20;;;9.90;83.80;;;;;;5056036;28;20017;-79
2022/05/01 04:52:30;;;;;;;13.80;8.50;;;9.90;83.80;;;;;;5074061;28;20151;-79
2022/05/01 04:54:56;;;;;;;14.40;9.10;;;9.90;83.90;;;;;;5073984;28;20437;-78
2022/05/01 04:57:21;;;;;;;13.33;8.83;;;10.00;83.90;;;;;;5039194;28;20028;-80
2022/05/01 04:59:48;;;;;;;12.60;8.50;;;9.90;84.00;;;;;;5073755;28;20074;-81
2022/05/01 05:02:14;;;;;;;12.57;8.77;;;10.10;84.10;;;;;;5039550;28;20039;-81
2022/05/01 05:04:40;;;;;;;15.63;9.20;;;9.90;84.00;;;;;;5055935;28;20407;-80
2022/05/01 05:07:06;;;;;;;12.63;8.20;;;10.00;84.10;;;;;;5055830;28;20093;-80
2022/05/01 05:12:16;;;;;;;13.23;7.40;;;10.00;84.20;;;;;;5059253;28;20101;-80
2022/05/01 05:14:42;;;;;;;14.83;8.17;;;10.00;84.30;;;;;;5056352;28;20528;-80
2022/05/01 05:17:09;;;;;;;13.30;8.63;;;10.10;84.40;;;;;;5073512;28;20035;-80
2022/05/01 05:19:35;;;;;;;14.00;8.90;;;10.10;84.40;;;;;;5055622;28;20036;-80
2022/05/01 05:22:01;;;;;;;15.83;9.23;;;10.10;85.00;;;;;;5073714;28;20486;-79
2022/05/01 05:24:28;;;;;;;13.70;9.13;;;10.10;84.40;;;;;;5073676;28;20175;-79
2022/05/01 05:26:54;;;;;;;12.93;8.70;;;10.20;84.50;;;;;;5073564;28;20028;-80
2022/05/01 05:29:19;;;;;;;15.93;8.97;;;10.20;84.50;;;;;;5055575;28;20029;-79
2022/05/01 05:31:45;;;;;;;13.53;9.33;;;10.30;84.60;;;;;;5055502;28;20457;-79
2022/05/01 05:34:10;;;;;;;13.83;8.70;;;10.30;84.60;;;;;;5038806;28;20039;-79
2022/05/01 05:36:36;;;;;;;13.00;8.93;;;10.30;84.60;;;;;;5055439;28;20051;-79
2022/05/01 05:39:01;;;;;;;15.60;9.23;;;10.40;84.60;;;;;;5073270;28;20393;-79
2022/05/01 05:41:27;;;;;;;13.40;8.90;;;10.40;84.50;;;;;;5072266;28;20060;-80
2022/05/01 05:43:53;;;;;;;14.93;9.07;;;10.40;84.50;;;;;;5055229;28;20036;-80
2022/05/01 05:46:18;;;;;;;13.57;8.80;;;10.40;84.50;;;;;;5073130;28;20063;-80
2022/05/01 05:48:44;;;;;;;13.87;8.87;;;10.50;84.50;;;;;;5055366;28;20096;-79
2022/05/01 05:51:09;;;;;;;11.87;8.43;;;10.50;84.60;;;;;;5073145;28;20412;-79
2022/05/01 05:53:35;;;;;;;13.63;8.43;;;10.50;84.50;;;;;;5073127;28;20020;-80
2022/05/01 05:56:00;;;;;;;15.00;9.40;;;10.50;84.60;;;;;;5055369;28;20070;-80
2022/05/01 05:58:26;;;;;;;15.83;9.30;;;10.60;84.40;;;;;;5073260;28;20032;-80
2022/05/01 06:00:52;;;;;;;15.23;8.70;;;10.60;84.30;;;;;;5073090;28;20029;-80
2022/05/01 06:03:19;;;;;;;13.60;8.17;;;10.70;84.30;;;;;;5073115;28;20021;-80
2022/05/01 06:05:45;;;;;;;12.60;8.90;;;10.70;84.20;;;;;;5062742;28;20024;-80
2022/05/01 06:08:11;;;;;;;14.13;8.87;;;10.70;84.10;;;;;;5075133;28;20028;-80
2022/05/01 06:10:38;;;;;;;12.87;8.67;;;10.70;84.00;;;;;;5093117;28;20024;-80
2022/05/01 06:13:04;;;;;;;16.97;8.97;;;10.80;84.10;;;;;;5093148;28;20024;-80
2022/05/01 06:15:30;;;;;;;14.83;9.10;;;10.80;84.10;;;;;;5058487;28;20028;-80
2022/05/01 06:17:56;;;;;;;13.57;9.02;;;10.90;84.10;;;;;;5075112;28;20529;-80
2022/05/01 06:20:21;;;;;;;14.50;8.83;;;11.00;84.00;;;;;;5093053;28;20377;-79
2022/05/01 06:22:50;;;;;;;14.20;9.23;;;11.00;83.90;;;;;;5075006;28;20032;-80
2022/05/01 06:25:16;;;;;;;12.85;8.52;;;11.10;83.80;;;;;;5092717;28;20040;-80
2022/05/01 06:27:42;;;;;;;12.77;8.35;;;11.20;83.70;;;;;;5074937;28;20089;-80
2022/05/01 06:30:11;;;;;;;12.45;8.35;;;11.30;83.50;;;;;;5093511;28;20477;-80
2022/05/01 06:32:40;;;;;;;12.35;8.68;;;11.40;83.30;;;;;;5075729;28;20107;-81
2022/05/01 06:35:07;;;;;;;13.32;8.48;;;11.50;83.20;;;;;;5093192;28;20480;-81
2022/05/01 06:37:37;;;;;;;12.70;8.77;;;11.60;83.10;;;;;;5074989;28;20035;-81
2022/05/01 06:40:05;;;;;;;11.15;8.35;;;11.70;82.90;;;;;;5092895;28;20028;-81
2022/05/01 06:42:32;;;;;;;12.68;8.32;;;11.70;82.70;;;;;;5058264;28;20112;-81
2022/05/01 06:44:57;;;;;;;12.05;8.35;;;11.80;82.60;;;;;;5058178;28;20387;-81
2022/05/01 06:47:23;;;;;;;11.95;8.48;;;11.90;82.40;;;;;;5074613;28;20035;-81
2022/05/01 06:49:48;;;;;;;14.48;8.50;;;12.00;82.10;;;;;;5092629;28;20028;-81
2022/05/01 06:52:23;;;;;;;12.18;8.63;;;12.00;81.90;;;;;;5075053;28;20498;-81
2022/05/01 06:54:59;;;;;;;13.02;8.27;;;12.20;81.80;;;;;;5078098;28;20123;-81
2022/05/01 06:57:26;;;;;;;12.02;8.00;;;12.30;81.70;;;;;;5077764;28;20046;-81
2022/05/01 06:59:52;;;;;;;12.85;8.55;;;12.40;81.60;;;;;;5096155;28;20032;-80
2022/05/01 07:02:18;;;;;;;11.20;7.47;;;12.50;81.10;;;;;;5096198;28;20039;-81
2022/05/01 07:04:43;;;;;;;13.25;8.80;;;12.50;80.80;;;;;;5078187;28;20472;-81
2022/05/01 07:07:09;;;;;;;11.32;7.72;;;12.60;80.60;;;;;;5061436;28;20024;-81
2022/05/01 07:09:35;;;;;;;13.30;8.55;;;12.70;80.20;;;;;;5096107;28;20499;-81
2022/05/01 07:12:01;;;;;;;13.13;7.65;;;12.80;80.10;;;;;;5077787;28;20038;-81
2022/05/01 07:14:26;;;;;;;12.13;7.95;;;12.90;79.90;;;;;;5096176;28;20024;-81
2022/05/01 07:16:52;;;;;;;13.77;8.23;;;13.00;79.50;;;;;;5095829;28;20028;-81
2022/05/01 07:19:18;;;;;;;10.90;7.90;;;13.00;79.30;;;;;;5077831;28;20024;-81
2022/05/01 07:21:43;;;;;;;13.88;7.07;;;13.10;79.00;;;;;;5077585;28;20112;-81
2022/05/01 07:24:09;;;;;;;14.52;8.32;;;13.20;78.80;;;;;;5095318;28;20035;-82
2022/05/01 07:26:35;;;;;;;13.30;8.05;;;13.30;78.20;;;;;;5077604;28;20076;-82
2022/05/01 07:29:02;;;;;;;11.88;7.45;;;13.30;77.70;;;;;;5077750;28;20032;-81
2022/05/01 07:31:28;;;;;;;15.48;7.78;;;13.40;77.70;;;;;;5095496;28;20076;-81
2022/05/01 07:33:53;;;;;;;12.15;6.90;;;13.40;77.50;;;;;;5095837;28;20040;-82
2022/05/01 07:36:19;;;;;;;12.27;8.07;;;13.50;77.30;;;;;;5095452;28;20040;-82
2022/05/01 07:38:46;;;;;;;10.52;6.43;;;13.60;77.00;;;;;;5095508;28;20032;-82
2022/05/01 07:41:12;;;;;;;11.25;7.45;;;13.70;76.40;;;;;;5077303;28;20020;-81
2022/05/01 07:43:38;;;;;;;14.40;7.70;;;13.80;76.70;;;;;;5095573;28;20024;-83
2022/05/01 07:46:05;;;;;;;10.43;6.65;;;13.90;76.40;;;;;;5095329;28;20017;-83
2022/05/01 07:48:32;;;;;;;11.02;6.60;;;13.90;75.50;;;;;;5077211;28;20116;-74
2022/05/01 07:50:57;;;;;;;10.05;6.60;;;14.00;75.30;;;;;;5077503;28;20056;-74
2022/05/01 07:53:23;;;;;;;12.70;7.85;;;14.10;75.00;;;;;;5095291;28;20483;-74
2022/05/01 07:55:48;;;;;;;11.10;6.43;;;14.00;74.30;;;;;;5095710;28;20020;-74
2022/05/01 07:58:14;;;;;;;13.88;7.18;;;14.20;74.20;;;;;;5095232;28;20028;-74
2022/05/01 08:00:40;;;;;;;9.73;6.15;;;14.20;73.90;;;;;;5095192;28;20023;-74
2022/05/01 08:05:49;;;;;;;9.18;6.00;;;14.30;73.30;;;;;;5094706;28;20035;-74
2022/05/01 08:08:15;;;;;;;12.05;6.88;;;14.40;72.90;;;;;;5094895;28;20099;-74
2022/05/01 08:10:41;;;;;;;10.23;6.47;;;14.40;73.60;;;;;;5094854;28;20024;-74
2022/05/01 08:13:07;;;;;;;10.48;6.85;;;14.60;72.90;;;;;;5094856;28;20040;-73
2022/05/01 08:15:33;;;;;;;12.48;6.78;;;14.70;72.60;;;;;;5076151;28;20073;-74
2022/05/01 08:21:05;;;;;;;8.93;5.93;;;14.80;71.90;;;;;;5094651;28;20028;-73
2022/05/01 08:23:28;;;;;;;9.88;5.72;;;15.00;71.40;;;;;;5094664;28;20035;-72
2022/05/01 08:25:55;;;;;;;9.07;5.80;;;15.10;71.00;;;;;;5094666;28;20052;-72
2022/05/01 08:28:20;;;;;;;11.85;5.65;;;15.20;70.80;;;;;;5076510;28;20428;-72
2022/05/01 08:30:46;;;;;;;10.70;6.25;;;15.30;70.60;;;;;;5076335;28;20054;-72
2022/05/01 08:33:12;;;;;;;9.52;5.88;;;15.50;70.10;;;;;;5094250;28;20356;-71
2022/05/01 08:35:38;;;;;;;10.90;6.68;;;15.60;70.40;;;;;;5076286;28;20021;-71
2022/05/01 08:38:05;;;;;;;8.70;5.60;;;15.70;69.50;;;;;;5094279;28;20027;-71
2022/05/01 08:40:32;;;;;;;10.93;5.95;;;15.80;69.20;;;;;;5094068;28;20005;-73
2022/05/01 08:43:00;;;;;;;9.38;5.72;;;15.90;68.90;;;;;;5094068;28;20543;-74
2022/05/01 08:45:36;;;;;;;7.68;4.75;;;16.00;68.20;;;;;;5076275;28;20031;-74
2022/05/01 08:48:12;;;;;;;9.52;5.55;;;16.10;67.70;;;;;;5094160;28;20020;-73
2022/05/01 08:50:38;;;;;;;10.73;5.32;;;16.20;67.60;;;;;;5075518;28;20024;-74
2022/05/01 08:53:06;;;;;;;7.07;3.95;;;16.30;67.30;;;;;;5075698;28;20419;-73
2022/05/01 08:55:32;;;;;;;10.25;5.75;;;16.40;66.90;;;;;;5093999;28;20035;-72
2022/05/01 08:58:00;;;;;;;10.95;5.22;;;16.40;66.00;;;;;;5075812;28;20022;-72
2022/05/01 09:00:30;;;;;;;8.35;5.05;;;16.40;66.00;;;;;;5093697;28;20020;-72
2022/05/01 09:02:56;;;;;;;7.53;5.13;;;16.50;65.60;;;;;;5093769;28;20728;-76
2022/05/01 09:05:22;;;;;;;7.78;4.85;;;16.50;65.10;;;;;;5094285;28;20098;-75
2022/05/01 09:07:47;;;;;;;6.80;3.97;;;16.60;64.40;;;;;;5094233;28;20103;-75
2022/05/01 09:10:14;;;;;;;7.72;4.18;;;16.60;63.20;;;;;;5093547;28;20044;-75
2022/05/01 09:12:49;;;;;;;8.50;3.88;;;16.60;62.50;;;;;;5075118;28;20430;-72
2022/05/01 09:15:36;;;;;;;7.22;4.38;;;16.50;62.60;;;;;;5093424;28;20039;-72
2022/05/01 09:18:08;;;;;;;7.80;4.68;;;16.50;62.30;;;;;;5093826;28;20058;-72
2022/05/01 09:20:36;;;;;;;8.13;4.15;;;16.40;61.50;;;;;;5093958;28;20052;-74
2022/05/01 09:23:02;;;;;;;7.72;4.25;;;16.30;60.90;;;;;;5093050;28;20027;-74
2022/05/01 09:25:29;;;;;;;8.25;4.20;;;16.30;60.80;;;;;;5074155;28;20047;-75
2022/05/01 09:28:02;;;;;;;7.05;3.63;;;16.20;60.40;;;;;;5093086;28;20371;-74
2022/05/01 09:30:34;;;;;;;7.03;4.07;;;16.10;60.40;;;;;;5093198;28;20488;-74
2022/05/01 09:33:01;;;;;;;5.95;4.07;;;16.10;59.90;;;;;;5093028;28;20089;-73
2022/05/01 09:35:32;;;;;;;8.80;4.25;;;15.90;59.70;;;;;;5091311;28;20036;-75
2022/05/01 09:38:25;;;;;;;8.25;4.50;;;15.80;59.40;;;;;;5090766;28;20492;-75
2022/05/01 09:40:57;;;;;;;9.05;4.45;;;15.80;59.40;;;;;;5075089;28;20119;-74
2022/05/01 09:43:43;;;;;;;11.98;4.85;;;15.70;59.60;;;;;;5092883;28;20028;-75
2022/05/01 09:46:21;;;;;;;5.75;3.97;;;15.60;59.60;;;;;;5092316;28;20472;-75
2022/05/01 09:49:04;;;;;;;7.82;4.72;;;15.40;59.80;;;;;;5092937;28;20157;-74
2022/05/01 09:51:35;;;;;;;9.07;4.57;;;15.20;60.10;;;;;;5089528;28;20373;-75
2022/05/01 09:54:02;;;;;;;7.60;4.63;;;15.10;60.80;;;;;;5092839;28;20051;-74
2022/05/01 09:56:41;;;;;;;7.32;4.30;;;14.90;61.30;;;;;;5093288;28;20129;-74
2022/05/01 09:59:07;;;;;;;7.95;4.40;;;14.70;61.60;;;;;;5093225;28;20080;-75
2022/05/01 10:01:33;;;;;;;9.60;5.18;;;14.50;61.90;;;;;;5092992;28;20103;-74
2022/05/01 10:04:04;;;;;;;9.30;5.47;;;14.30;62.40;;;;;;5093548;28;20024;-74
2022/05/01 10:06:32;;;;;;;7.45;4.57;;;14.20;62.80;;;;;;5075109;28;20103;-73
2022/05/01 10:09:04;;;;;;;11.25;5.20;;;14.10;63.30;;;;;;5092091;28;20055;-74
2022/05/01 10:11:31;;;;;;;8.35;4.80;;;14.10;63.20;;;;;;5071681;28;20032;-74
2022/05/01 10:13:56;;;;;;;10.80;5.47;;;13.90;63.40;;;;;;5055045;28;20434;-75
2022/05/01 10:16:26;;;;;;;10.77;4.97;;;13.80;63.30;;;;;;5073138;28;20032;-74
2022/05/01 10:18:52;;;;;;;8.32;4.85;;;13.70;63.60;;;;;;5073175;28;20457;-75
2022/05/01 10:21:17;;;;;;;9.05;4.63;;;13.70;64.00;;;;;;5072771;28;20028;-75
2022/05/01 10:23:44;;;;;;;8.60;4.60;;;13.60;64.10;;;;;;5073020;28;20017;-75
2022/05/01 10:26:17;;;;;;;9.45;5.90;;;13.60;64.30;;;;;;5072600;28;20079;-74
2022/05/01 10:29:10;;;;;;;8.02;4.70;;;13.60;64.40;;;;;;5075801;28;20106;-74
2022/05/01 10:32:27;;;;;;;8.40;4.70;;;13.60;64.50;;;;;;5073075;28;20527;-73
2022/05/01 10:35:08;;;;;;;9.02;6.10;;;13.50;64.60;;;;;;5042427;28;20043;-72
2022/05/01 10:38:14;;;;;;;11.23;5.88;;;13.60;64.60;;;;;;5058483;28;20033;-73
2022/05/01 10:40:45;;;;;;;10.02;5.82;;;13.50;64.70;;;;;;5076300;28;20040;-75
2022/05/01 10:43:38;;;;;;;8.52;5.03;;;13.60;64.60;;;;;;5076263;28;20445;-75
2022/05/01 10:46:26;;;;;;;12.38;5.55;;;13.70;64.40;;;;;;5069634;28;20040;-75
2022/05/01 10:48:52;;;;;;;7.07;4.38;;;13.70;64.10;;;;;;5048577;28;20033;-75
2022/05/01 10:51:38;;;;;;;8.10;5.07;;;13.80;64.00;;;;;;5075913;28;20028;-74
2022/05/01 10:54:10;;;;;;;9.68;5.35;;;13.90;63.80;;;;;;5076496;28;20108;-75
2022/05/01 10:56:37;;;;;;;9.50;4.72;;;14.00;63.50;;;;;;5076315;28;20032;-74
2022/05/01 10:59:31;;;;;;;5.85;3.95;;;14.20;63.30;;;;;;5076160;28;20158;-74
2022/05/01 11:02:01;;;;;;;8.25;4.85;;;14.30;63.00;;;;;;5075891;28;20480;-74
2022/05/01 11:04:38;;;;;;;10.75;5.38;;;14.40;62.60;;;;;;5075899;28;20024;-75
2022/05/01 11:07:05;;;;;;;11.18;5.80;;;14.50;62.50;;;;;;5075935;28;20070;-75
2022/05/01 11:09:35;;;;;;;9.30;5.38;;;14.40;62.10;;;;;;5075929;28;20028;-75
2022/05/01 11:12:01;;;;;;;9.27;5.20;;;14.60;61.80;;;;;;5058251;28;20457;-75
2022/05/01 11:14:35;;;;;;;7.80;4.88;;;14.70;61.40;;;;;;5076049;28;20111;-75
2022/05/01 11:17:04;;;;;;;9.63;5.13;;;14.80;61.20;;;;;;5077503;28;20521;-75
2022/05/01 11:19:42;;;;;;;8.63;5.07;;;14.90;60.90;;;;;;5078623;28;20054;-75
2022/05/01 11:22:08;;;;;;;8.30;4.60;;;15.20;60.80;;;;;;5095888;28;20020;-75
2022/05/01 11:24:45;;;;;;;7.05;4.32;;;15.30;60.30;;;;;;5095527;28;20523;-75
2022/05/01 11:27:10;;;;;;;6.60;3.80;;;15.60;60.10;;;;;;5077450;28;20044;-75
2022/05/01 11:29:36;;;;;;;9.20;3.90;;;16.10;60.40;;;;;;5095810;28;20096;-76
2022/05/01 11:32:21;;;;;;;6.30;3.90;;;16.50;60.00;;;;;;5077619;28;20384;-75
2022/05/01 11:34:52;;;;;;;5.47;3.05;;;17.00;59.00;;;;;;5078277;28;20027;-75
2022/05/01 11:37:18;;;;;;;5.53;3.15;;;17.30;58.80;;;;;;5095470;28;20103;-75
2022/05/01 11:39:49;;;;;;;6.97;3.70;;;17.70;58.20;;;;;;5094535;28;20036;-75
2022/05/01 11:42:25;;;;;;;8.02;4.20;;;18.20;57.10;;;;;;5077322;28;20787;-75
2022/05/01 11:44:55;;;;;;;7.55;3.42;;;18.70;55.80;;;;;;5095780;28;20391;-76
2022/05/01 11:47:26;;;;;;;6.55;3.08;;;19.00;55.40;;;;;;5096000;28;20020;-76
2022/05/01 11:49:52;;;;;;;6.53;3.97;;;19.40;54.50;;;;;;5087901;28;20036;-75
2022/05/01 11:52:19;;;;;;;5.90;3.38;;;19.60;53.70;;;;;;5094758;28;20350;-74
2022/05/01 11:54:50;;;;;;;8.80;3.78;;;19.90;52.80;;;;;;5076501;28;20028;-74
2022/05/01 12:03:13;;;;;;;5.72;3.42;;;20.50;50.20;;;;;;5052148;28;20107;-74
2022/05/01 12:05:41;;;;;;;6.22;3.03;;;20.70;49.50;;;;;;5081280;28;20036;-73
2022/05/01 12:08:06;;;;;;;7.45;3.40;;;20.80;48.20;;;;;;5068204;28;20036;-74
2022/05/01 12:10:32;;;;;;;5.30;2.97;;;20.90;47.90;;;;;;5056130;28;20036;-75
2022/05/01 12:12:58;;;;;;;4.85;2.75;;;21.20;47.80;;;;;;5039820;28;20024;-75
2022/05/01 12:15:24;;;;;;;6.50;3.25;;;21.50;47.00;;;;;;5069235;28;20039;-76
2022/05/01 12:17:51;;;;;;;6.22;3.15;;;21.80;45.70;;;;;;5094752;28;20027;-73
2022/05/01 12:20:16;;;;;;;5.93;2.92;;;22.00;45.30;;;;;;5060736;28;20032;-76
2022/05/01 12:22:43;;;;;;;6.78;3.53;;;22.00;43.90;;;;;;5076390;28;20097;-73
2022/05/01 12:25:11;;;;;;;6.43;3.00;;;22.10;43.60;;;;;;5094204;28;20031;-73
2022/05/01 12:27:41;;;;;;;5.82;3.08;;;22.10;43.30;;;;;;5093653;28;20028;-73
2022/05/01 12:30:08;;;;;;;6.22;3.53;;;22.10;42.90;;;;;;5076032;28;20052;-74
2022/05/01 12:32:36;;;;;;;6.45;3.17;;;22.10;42.50;;;;;;5093956;28;20016;-74
2022/05/01 12:35:04;;;;;;;7.45;3.05;;;22.10;42.50;;;;;;5094362;28;20165;-74
2022/05/01 12:37:37;;;;;;;4.30;2.72;;;22.10;42.70;;;;;;5093312;28;20425;-73
2022/05/01 12:40:13;;;;;;;6.38;3.40;;;22.00;42.70;;;;;;5074468;28;20056;-74
2022/05/01 12:45:41;;;;;;;6.07;2.72;;;21.80;43.00;;;;;;5092432;28;20043;-74
2022/05/01 12:48:08;;;;;;;5.53;2.63;;;21.90;43.20;;;;;;5075919;28;20028;-74
2022/05/01 12:50:37;;;;;;;4.75;2.75;;;22.00;43.30;;;;;;5094074;28;20020;-75
2022/05/01 12:53:24;;;;;;;5.30;2.88;;;22.10;43.20;;;;;;5094491;28;20047;-73
2022/05/01 12:55:51;;;;;;;4.88;2.80;;;22.10;42.80;;;;;;5076106;28;20031;-74
2022/05/01 12:58:30;;;;;;;7.05;3.58;;;22.20;43.00;;;;;;5093885;28;20028;-74
2022/05/01 13:00:56;;;;;;;4.03;2.53;;;22.20;42.70;;;;;;5093730;28;20051;-75
2022/05/01 13:03:34;;;;;;;4.45;2.30;;;22.10;42.60;;;;;;5093873;28;20108;-76
2022/05/01 13:06:07;;;;;;;5.10;2.97;;;22.00;42.40;;;;;;5093912;28;20028;-76
2022/05/01 13:08:52;;;;;;;5.55;3.30;;;21.90;42.40;;;;;;5094076;28;20208;-75
2022/05/01 13:11:30;;;;;;;6.28;2.97;;;21.70;42.40;;;;;;5093699;28;20392;-75
2022/05/01 13:13:57;;;;;;;4.25;2.40;;;21.60;42.40;;;;;;5093805;28;20024;-76
2022/05/01 13:16:24;;;;;;;5.47;3.03;;;21.40;42.70;;;;;;5094010;28;20472;-76
2022/05/01 13:18:55;;;;;;;5.53;3.22;;;21.30;42.80;;;;;;5093705;28;20078;-75